sensor_id;sensor_type;location;lat;lon;timestamp;pressure;altitude;pressure_sealevel;temperature;humidity
69214;BME280;56325;47.030;18.518;2023-05-28T00:02:07;100632.28;;;17.49;58.95
69214;BME280;56325;47.030;18.518;2023-05-28T00:04:42;100627.22;;;17.47;58.87
69214;BME280;56325;47.030;18.518;2023-05-28T00:07:18;100625.88;;;17.37;60.04
69214;BME280;56325;47.030;18.518;2023-05-28T00:09:54;100625.00;;;17.62;60.19
69214;BME280;56325;47.030;18.518;2023-05-28T00:12:29;100619.78;;;17.70;60.03
69214;BME280;56325;47.030;18.518;2023-05-28T00:15:05;100624.56;;;17.69;59.35
69214;BME280;56325;47.030;18.518;2023-05-28T00:17:39;100622.50;;;17.64;59.65
69214;BME280;56325;47.030;18.518;2023-05-28T00:20:14;100609.84;;;17.63;59.78
69214;BME280;56325;47.030;18.518;2023-05-28T00:22:51;100607.41;;;17.77;59.55
69214;BME280;56325;47.030;18.518;2023-05-28T00:25:25;100603.75;;;17.59;59.18
69214;BME280;56325;47.030;18.518;2023-05-28T00:28:00;100606.06;;;17.61;60.16
69214;BME280;56325;47.030;18.518;2023-05-28T00:30:35;100601.25;;;17.61;60.35
69214;BME280;56325;47.030;18.518;2023-05-28T00:33:09;100605.88;;;17.70;59.65
69214;BME280;56325;47.030;18.518;2023-05-28T00:35:44;100603.84;;;17.71;59.29
69214;BME280;56325;47.030;18.518;2023-05-28T00:38:20;100601.81;;;17.65;59.99
69214;BME280;56325;47.030;18.518;2023-05-28T00:40:55;100599.03;;;17.65;60.69
69214;BME280;56325;47.030;18.518;2023-05-28T00:43:29;100597.19;;;17.57;60.82
69214;BME280;56325;47.030;18.518;2023-05-28T00:46:05;100591.88;;;17.59;60.97
69214;BME280;56325;47.030;18.518;2023-05-28T00:48:40;100597.34;;;17.42;62.11
69214;BME280;56325;47.030;18.518;2023-05-28T00:51:15;100600.59;;;17.35;61.44
69214;BME280;56325;47.030;18.518;2023-05-28T00:53:51;100593.78;;;17.36;61.84
69214;BME280;56325;47.030;18.518;2023-05-28T00:56:26;100594.47;;;17.20;62.85
69214;BME280;56325;47.030;18.518;2023-05-28T00:59:02;100586.78;;;17.03;63.26
69214;BME280;56325;47.030;18.518;2023-05-28T01:01:38;100580.25;;;17.07;62.79
69214;BME280;56325;47.030;18.518;2023-05-28T01:04:13;100575.69;;;17.03;62.65
69214;BME280;56325;47.030;18.518;2023-05-28T01:06:48;100579.72;;;17.02;62.61
69214;BME280;56325;47.030;18.518;2023-05-28T01:09:24;100573.72;;;17.15;61.57
69214;BME280;56325;47.030;18.518;2023-05-28T01:11:59;100569.13;;;17.07;62.17
69214;BME280;56325;47.030;18.518;2023-05-28T01:14:36;100576.75;;;17.12;61.59
69214;BME280;56325;47.030;18.518;2023-05-28T01:17:11;100579.72;;;17.02;62.16
69214;BME280;56325;47.030;18.518;2023-05-28T01:19:48;100573.41;;;17.02;61.07
69214;BME280;56325;47.030;18.518;2023-05-28T01:22:25;100580.69;;;16.99;61.74
69214;BME280;56325;47.030;18.518;2023-05-28T01:25:05;100572.31;;;16.62;62.32
69214;BME280;56325;47.030;18.518;2023-05-28T01:27:43;100570.03;;;16.92;61.04
69214;BME280;56325;47.030;18.518;2023-05-28T01:30:18;100565.50;;;16.95;61.35
69214;BME280;56325;47.030;18.518;2023-05-28T01:32:53;100566.81;;;16.99;61.08
69214;BME280;56325;47.030;18.518;2023-05-28T01:35:28;100561.28;;;17.05;60.67
69214;BME280;56325;47.030;18.518;2023-05-28T01:38:03;100559.81;;;17.10;60.66
69214;BME280;56325;47.030;18.518;2023-05-28T01:40:44;100562.84;;;17.12;60.36
69214;BME280;56325;47.030;18.518;2023-05-28T01:43:19;100560.53;;;17.04;60.30
69214;BME280;56325;47.030;18.518;2023-05-28T01:45:54;100555.16;;;16.95;60.56
69214;BME280;56325;47.030;18.518;2023-05-28T01:48:29;100559.69;;;16.93;60.58
69214;BME280;56325;47.030;18.518;2023-05-28T01:51:04;100560.94;;;16.92;60.88
69214;BME280;56325;47.030;18.518;2023-05-28T01:53:40;100562.75;;;16.95;60.94
69214;BME280;56325;47.030;18.518;2023-05-28T01:56:16;100564.03;;;16.99;60.49
69214;BME280;56325;47.030;18.518;2023-05-28T01:58:51;100553.19;;;17.01;61.04
69214;BME280;56325;47.030;18.518;2023-05-28T02:01:28;100554.91;;;16.93;60.69
69214;BME280;56325;47.030;18.518;2023-05-28T02:04:04;100553.41;;;16.98;60.43
69214;BME280;56325;47.030;18.518;2023-05-28T02:06:44;100554.12;;;16.61;61.80
69214;BME280;56325;47.030;18.518;2023-05-28T02:09:19;100560.81;;;16.18;63.68
69214;BME280;56325;47.030;18.518;2023-05-28T02:11:55;100557.56;;;15.73;64.57
69214;BME280;56325;47.030;18.518;2023-05-28T02:14:32;100559.50;;;15.67;65.54
69214;BME280;56325;47.030;18.518;2023-05-28T02:17:06;100554.84;;;15.79;65.09
69214;BME280;56325;47.030;18.518;2023-05-28T02:19:41;100553.22;;;15.66;66.18
69214;BME280;56325;47.030;18.518;2023-05-28T02:22:16;100557.41;;;15.82;65.98
69214;BME280;56325;47.030;18.518;2023-05-28T02:24:51;100552.06;;;15.99;65.47
69214;BME280;56325;47.030;18.518;2023-05-28T02:27:26;100549.34;;;16.04;65.39
69214;BME280;56325;47.030;18.518;2023-05-28T02:30:04;100550.75;;;15.94;65.42
69214;BME280;56325;47.030;18.518;2023-05-28T02:32:38;100556.84;;;15.98;65.33
69214;BME280;56325;47.030;18.518;2023-05-28T02:35:13;100554.69;;;16.08;64.53
69214;BME280;56325;47.030;18.518;2023-05-28T02:37:48;100548.03;;;16.00;64.97
69214;BME280;56325;47.030;18.518;2023-05-28T02:40:23;100549.56;;;16.01;64.90
69214;BME280;56325;47.030;18.518;2023-05-28T02:42:59;100553.91;;;16.08;64.65
69214;BME280;56325;47.030;18.518;2023-05-28T02:45:34;100562.06;;;15.91;65.38
69214;BME280;56325;47.030;18.518;2023-05-28T02:48:08;100552.94;;;16.11;64.73
69214;BME280;56325;47.030;18.518;2023-05-28T02:50:43;100555.72;;;16.11;64.53
69214;BME280;56325;47.030;18.518;2023-05-28T02:53:21;100557.03;;;16.15;64.35
69214;BME280;56325;47.030;18.518;2023-05-28T02:55:56;100555.66;;;16.05;64.66
69214;BME280;56325;47.030;18.518;2023-05-28T02:58:32;100558.87;;;15.78;66.01
69214;BME280;56325;47.030;18.518;2023-05-28T03:01:09;100562.47;;;15.84;65.87
69214;BME280;56325;47.030;18.518;2023-05-28T03:03:44;100555.78;;;15.70;66.43
69214;BME280;56325;47.030;18.518;2023-05-28T03:06:19;100557.22;;;15.86;65.93
69214;BME280;56325;47.030;18.518;2023-05-28T03:08:54;100554.94;;;15.64;66.78
69214;BME280;56325;47.030;18.518;2023-05-28T03:11:28;100563.69;;;15.57;66.96
69214;BME280;56325;47.030;18.518;2023-05-28T03:14:04;100551.38;;;15.58;66.84
69214;BME280;56325;47.030;18.518;2023-05-28T03:16:39;100554.53;;;15.51;66.94
69214;BME280;56325;47.030;18.518;2023-05-28T03:19:16;100564.47;;;15.57;66.54
69214;BME280;56325;47.030;18.518;2023-05-28T03:21:50;100568.75;;;15.58;66.62
69214;BME280;56325;47.030;18.518;2023-05-28T03:24:25;100566.59;;;15.48;67.10
69214;BME280;56325;47.030;18.518;2023-05-28T03:27:01;100574.41;;;15.49;66.76
69214;BME280;56325;47.030;18.518;2023-05-28T03:29:37;100569.00;;;15.60;66.68
69214;BME280;56325;47.030;18.518;2023-05-28T03:32:12;100570.00;;;15.57;66.77
69214;BME280;56325;47.030;18.518;2023-05-28T03:34:47;100577.25;;;15.75;65.56
69214;BME280;56325;47.030;18.518;2023-05-28T03:37:23;100575.09;;;15.64;66.48
69214;BME280;56325;47.030;18.518;2023-05-28T03:39:59;100576.13;;;15.87;65.48
69214;BME280;56325;47.030;18.518;2023-05-28T03:42:34;100574.12;;;15.67;66.70
69214;BME280;56325;47.030;18.518;2023-05-28T03:45:11;100575.19;;;15.70;66.20
69214;BME280;56325;47.030;18.518;2023-05-28T03:47:46;100581.38;;;15.59;66.82
69214;BME280;56325;47.030;18.518;2023-05-28T03:50:21;100570.41;;;16.43;71.05
69214;BME280;56325;47.030;18.518;2023-05-28T03:52:58;100571.56;;;16.93;68.42
69214;BME280;56325;47.030;18.518;2023-05-28T03:59:08;100572.91;;;17.03;63.16
69214;BME280;56325;47.030;18.518;2023-05-28T04:01:43;100572.91;;;17.03;63.16
69214;BME280;56325;47.030;18.518;2023-05-28T04:04:18;100582.13;;;16.58;63.90
69214;BME280;56325;47.030;18.518;2023-05-28T04:06:53;100577.38;;;16.64;63.32
69214;BME280;56325;47.030;18.518;2023-05-28T04:09:28;100580.25;;;16.44;64.02
69214;BME280;56325;47.030;18.518;2023-05-28T04:12:02;100574.09;;;16.34;64.70
69214;BME280;56325;47.030;18.518;2023-05-28T04:14:39;100569.16;;;16.49;64.19
69214;BME280;56325;47.030;18.518;2023-05-28T04:17:14;100571.22;;;16.54;63.30
69214;BME280;56325;47.030;18.518;2023-05-28T04:19:48;100579.25;;;16.47;63.43
69214;BME280;56325;47.030;18.518;2023-05-28T04:22:24;100581.78;;;16.45;63.66
69214;BME280;56325;47.030;18.518;2023-05-28T04:24:59;100572.25;;;16.57;63.76
69214;BME280;56325;47.030;18.518;2023-05-28T04:27:35;100578.34;;;16.29;65.23
69214;BME280;56325;47.030;18.518;2023-05-28T04:30:12;100583.44;;;16.11;67.01
69214;BME280;56325;47.030;18.518;2023-05-28T04:32:46;100586.88;;;16.26;67.04
69214;BME280;56325;47.030;18.518;2023-05-28T04:35:22;100583.94;;;16.09;66.84
69214;BME280;56325;47.030;18.518;2023-05-28T04:37:56;100581.59;;;16.02;67.18
69214;BME280;56325;47.030;18.518;2023-05-28T04:40:32;100584.44;;;16.33;66.34
69214;BME280;56325;47.030;18.518;2023-05-28T04:43:07;100582.38;;;16.60;65.53
69214;BME280;56325;47.030;18.518;2023-05-28T04:45:43;100575.53;;;16.81;64.88
69214;BME280;56325;47.030;18.518;2023-05-28T04:48:18;100586.94;;;16.89;64.84
69214;BME280;56325;47.030;18.518;2023-05-28T04:50:53;100581.66;;;16.91;65.28
69214;BME280;56325;47.030;18.518;2023-05-28T04:53:27;100581.28;;;16.78;65.70
69214;BME280;56325;47.030;18.518;2023-05-28T04:56:05;100580.34;;;16.86;65.98
69214;BME280;56325;47.030;18.518;2023-05-28T04:58:39;100580.31;;;16.81;66.22
69214;BME280;56325;47.030;18.518;2023-05-28T05:01:15;100579.78;;;16.77;66.61
69214;BME280;56325;47.030;18.518;2023-05-28T05:03:50;100585.56;;;17.10;70.17
69214;BME280;56325;47.030;18.518;2023-05-28T05:06:25;100581.19;;;18.00;68.52
69214;BME280;56325;47.030;18.518;2023-05-28T05:09:00;100576.19;;;18.38;64.46
69214;BME280;56325;47.030;18.518;2023-05-28T05:11:34;100576.44;;;18.45;62.08
69214;BME280;56325;47.030;18.518;2023-05-28T05:14:09;100574.19;;;18.77;63.66
69214;BME280;56325;47.030;18.518;2023-05-28T05:16:46;100577.66;;;19.17;62.43
69214;BME280;56325;47.030;18.518;2023-05-28T05:19:20;100581.16;;;19.34;60.81
69214;BME280;56325;47.030;18.518;2023-05-28T05:21:55;100583.00;;;19.15;60.05
69214;BME280;56325;47.030;18.518;2023-05-28T05:24:30;100582.94;;;19.37;59.98
69214;BME280;56325;47.030;18.518;2023-05-28T05:27:05;100578.59;;;19.58;59.37
69214;BME280;56325;47.030;18.518;2023-05-28T05:29:39;100576.28;;;19.62;58.35
69214;BME280;56325;47.030;18.518;2023-05-28T05:32:15;100576.91;;;19.91;57.20
69214;BME280;56325;47.030;18.518;2023-05-28T05:34:50;100573.31;;;19.96;57.22
69214;BME280;56325;47.030;18.518;2023-05-28T05:37:28;100562.09;;;20.07;56.00
69214;BME280;56325;47.030;18.518;2023-05-28T05:40:03;100573.66;;;19.87;55.60
69214;BME280;56325;47.030;18.518;2023-05-28T05:42:39;100570.28;;;19.94;57.08
69214;BME280;56325;47.030;18.518;2023-05-28T05:45:14;100562.25;;;20.20;56.41
69214;BME280;56325;47.030;18.518;2023-05-28T05:47:50;100558.28;;;20.05;55.90
69214;BME280;56325;47.030;18.518;2023-05-28T05:50:25;100559.94;;;20.24;56.88
69214;BME280;56325;47.030;18.518;2023-05-28T05:53:00;100556.78;;;20.45;55.33
69214;BME280;56325;47.030;18.518;2023-05-28T05:55:36;100553.31;;;20.27;56.21
69214;BME280;56325;47.030;18.518;2023-05-28T05:58:11;100553.62;;;20.59;55.53
69214;BME280;56325;47.030;18.518;2023-05-28T06:02:50;100549.13;;;21.30;52.69
69214;BME280;56325;47.030;18.518;2023-05-28T06:05:30;100549.13;;;21.30;52.69
69214;BME280;56325;47.030;18.518;2023-05-28T06:08:04;100555.28;;;20.74;54.63
69214;BME280;56325;47.030;18.518;2023-05-28T06:10:39;100562.72;;;20.66;53.75
69214;BME280;56325;47.030;18.518;2023-05-28T06:13:14;100563.22;;;20.64;55.25
69214;BME280;56325;47.030;18.518;2023-05-28T06:15:49;100557.12;;;20.90;54.40
69214;BME280;56325;47.030;18.518;2023-05-28T06:18:26;100565.00;;;20.91;54.06
69214;BME280;56325;47.030;18.518;2023-05-28T06:21:02;100560.50;;;21.07;54.04
69214;BME280;56325;47.030;18.518;2023-05-28T06:23:37;100567.53;;;20.89;49.42
69214;BME280;56325;47.030;18.518;2023-05-28T06:26:12;100566.34;;;20.14;51.79
69214;BME280;56325;47.030;18.518;2023-05-28T06:28:46;100575.19;;;20.23;51.83
69214;BME280;56325;47.030;18.518;2023-05-28T06:31:22;100563.38;;;20.01;51.68
69214;BME280;56325;47.030;18.518;2023-05-28T06:33:58;100575.91;;;19.88;50.96
69214;BME280;56325;47.030;18.518;2023-05-28T06:36:33;100567.22;;;19.97;51.19
69214;BME280;56325;47.030;18.518;2023-05-28T06:39:09;100571.97;;;20.08;50.60
69214;BME280;56325;47.030;18.518;2023-05-28T06:41:45;100581.78;;;19.85;50.90
69214;BME280;56325;47.030;18.518;2023-05-28T06:44:20;100572.56;;;19.95;51.03
69214;BME280;56325;47.030;18.518;2023-05-28T06:46:55;100573.81;;;20.00;50.53
69214;BME280;56325;47.030;18.518;2023-05-28T06:49:31;100580.41;;;19.97;49.95
69214;BME280;56325;47.030;18.518;2023-05-28T06:52:06;100569.00;;;19.95;50.95
69214;BME280;56325;47.030;18.518;2023-05-28T06:54:40;100581.94;;;19.98;50.38
69214;BME280;56325;47.030;18.518;2023-05-28T06:57:15;100579.81;;;20.15;51.26
69214;BME280;56325;47.030;18.518;2023-05-28T06:59:50;100582.84;;;20.17;51.10
69214;BME280;56325;47.030;18.518;2023-05-28T07:02:24;100578.34;;;20.03;49.85
69214;BME280;56325;47.030;18.518;2023-05-28T07:05:01;100581.25;;;20.27;50.72
69214;BME280;56325;47.030;18.518;2023-05-28T07:07:38;100578.12;;;20.37;50.46
69214;BME280;56325;47.030;18.518;2023-05-28T07:10:12;100569.28;;;20.38;51.64
69214;BME280;56325;47.030;18.518;2023-05-28T07:12:49;100566.34;;;20.55;52.20
69214;BME280;56325;47.030;18.518;2023-05-28T07:15:23;100576.28;;;20.80;52.21
69214;BME280;56325;47.030;18.518;2023-05-28T07:17:58;100568.13;;;20.82;52.17
69214;BME280;56325;47.030;18.518;2023-05-28T07:20:35;100568.31;;;20.90;50.69
69214;BME280;56325;47.030;18.518;2023-05-28T07:23:11;100572.97;;;21.06;51.34
69214;BME280;56325;47.030;18.518;2023-05-28T07:25:45;100569.37;;;21.11;52.14
69214;BME280;56325;47.030;18.518;2023-05-28T07:28:20;100576.72;;;21.14;52.58
69214;BME280;56325;47.030;18.518;2023-05-28T07:30:55;100573.97;;;21.76;52.38
69214;BME280;56325;47.030;18.518;2023-05-28T07:33:30;100571.41;;;21.59;48.66
69214;BME280;56325;47.030;18.518;2023-05-28T07:36:06;100569.25;;;21.47;48.68
69214;BME280;56325;47.030;18.518;2023-05-28T07:38:42;100563.00;;;21.59;49.49
69214;BME280;56325;47.030;18.518;2023-05-28T07:41:16;100569.13;;;21.58;49.74
69214;BME280;56325;47.030;18.518;2023-05-28T07:43:51;100560.66;;;21.64;49.69
69214;BME280;56325;47.030;18.518;2023-05-28T07:46:26;100561.56;;;21.72;48.92
69214;BME280;56325;47.030;18.518;2023-05-28T07:49:02;100565.34;;;21.55;47.03
69214;BME280;56325;47.030;18.518;2023-05-28T07:51:38;100552.56;;;21.79;49.15
69214;BME280;56325;47.030;18.518;2023-05-28T07:54:13;100558.53;;;21.70;50.51
69214;BME280;56325;47.030;18.518;2023-05-28T07:56:48;100548.00;;;21.95;52.50
69214;BME280;56325;47.030;18.518;2023-05-28T07:59:23;100554.34;;;22.33;51.95
69214;BME280;56325;47.030;18.518;2023-05-28T08:01:58;100546.16;;;22.35;49.13
69214;BME280;56325;47.030;18.518;2023-05-28T08:04:34;100544.12;;;22.35;49.56
69214;BME280;56325;47.030;18.518;2023-05-28T08:07:12;100551.09;;;22.29;50.14
69214;BME280;56325;47.030;18.518;2023-05-28T12:06:04;100374.34;;;27.56;36.52
69214;BME280;56325;47.030;18.518;2023-05-28T12:08:40;100374.34;;;27.56;36.52
69214;BME280;56325;47.030;18.518;2023-05-28T12:11:14;100366.94;;;26.96;37.85
69214;BME280;56325;47.030;18.518;2023-05-28T12:13:49;100375.03;;;27.39;37.01
69214;BME280;56325;47.030;18.518;2023-05-28T12:16:23;100365.81;;;27.71;36.69
69214;BME280;56325;47.030;18.518;2023-05-28T12:19:01;100360.81;;;27.55;36.42
69214;BME280;56325;47.030;18.518;2023-05-28T12:21:37;100365.50;;;27.27;36.55
69214;BME280;56325;47.030;18.518;2023-05-28T12:24:12;100361.97;;;27.19;39.60
69214;BME280;56325;47.030;18.518;2023-05-28T12:26:48;100367.25;;;27.48;36.88
69214;BME280;56325;47.030;18.518;2023-05-28T12:29:23;100356.88;;;27.18;35.60
69214;BME280;56325;47.030;18.518;2023-05-28T12:31:58;100367.28;;;27.07;36.25
69214;BME280;56325;47.030;18.518;2023-05-28T12:34:33;100362.44;;;27.33;36.60
69214;BME280;56325;47.030;18.518;2023-05-28T12:37:09;100357.94;;;26.90;36.85
69214;BME280;56325;47.030;18.518;2023-05-28T12:39:43;100355.06;;;27.05;36.08
69214;BME280;56325;47.030;18.518;2023-05-28T12:42:18;100353.97;;;26.93;35.66
69214;BME280;56325;47.030;18.518;2023-05-28T12:44:53;100353.34;;;27.09;37.09
69214;BME280;56325;47.030;18.518;2023-05-28T12:47:27;100350.53;;;27.09;36.41
69214;BME280;56325;47.030;18.518;2023-05-28T12:50:02;100351.38;;;27.27;35.54
69214;BME280;56325;47.030;18.518;2023-05-28T12:52:38;100349.78;;;27.41;34.57
69214;BME280;56325;47.030;18.518;2023-05-28T12:55:13;100347.03;;;27.59;35.78
69214;BME280;56325;47.030;18.518;2023-05-28T12:57:49;100342.63;;;27.40;35.41
69214;BME280;56325;47.030;18.518;2023-05-28T13:00:24;100343.06;;;26.97;35.85
69214;BME280;56325;47.030;18.518;2023-05-28T13:02:58;100348.72;;;27.29;36.31
69214;BME280;56325;47.030;18.518;2023-05-28T13:05:37;100334.69;;;27.47;36.35
69214;BME280;56325;47.030;18.518;2023-05-28T13:08:12;100346.44;;;27.35;34.28
69214;BME280;56325;47.030;18.518;2023-05-28T13:10:47;100333.72;;;27.77;33.88
69214;BME280;56325;47.030;18.518;2023-05-28T13:13:22;100327.78;;;28.07;34.21
69214;BME280;56325;47.030;18.518;2023-05-28T13:15:56;100337.25;;;27.60;34.33
69214;BME280;56325;47.030;18.518;2023-05-28T13:18:31;100333.47;;;27.32;33.87
69214;BME280;56325;47.030;18.518;2023-05-28T13:21:06;100337.91;;;27.10;33.99
69214;BME280;56325;47.030;18.518;2023-05-28T13:23:42;100345.53;;;27.58;33.98
69214;BME280;56325;47.030;18.518;2023-05-28T13:26:17;100322.75;;;27.81;31.66
69214;BME280;56325;47.030;18.518;2023-05-28T13:28:51;100322.41;;;27.77;33.14
69214;BME280;56325;47.030;18.518;2023-05-28T13:31:26;100326.69;;;27.85;33.36
69214;BME280;56325;47.030;18.518;2023-05-28T13:34:01;100325.13;;;28.09;32.88
69214;BME280;56325;47.030;18.518;2023-05-28T13:36:35;100315.53;;;28.29;33.22
69214;BME280;56325;47.030;18.518;2023-05-28T13:39:11;100315.66;;;28.14;34.13
69214;BME280;56325;47.030;18.518;2023-05-28T13:41:47;100315.19;;;27.83;33.24
69214;BME280;56325;47.030;18.518;2023-05-28T13:44:22;100306.59;;;28.16;33.31
69214;BME280;56325;47.030;18.518;2023-05-28T13:46:58;100310.12;;;28.41;34.10
69214;BME280;56325;47.030;18.518;2023-05-28T13:49:32;100315.06;;;27.98;33.51
69214;BME280;56325;47.030;18.518;2023-05-28T13:52:07;100310.66;;;28.05;32.50
69214;BME280;56325;47.030;18.518;2023-05-28T13:54:43;100307.06;;;28.47;31.96
69214;BME280;56325;47.030;18.518;2023-05-28T13:57:18;100298.34;;;27.93;32.57
69214;BME280;56325;47.030;18.518;2023-05-28T13:59:53;100302.56;;;28.44;31.82
69214;BME280;56325;47.030;18.518;2023-05-28T14:03:10;100292.00;;;28.88;30.50
69214;BME280;56325;47.030;18.518;2023-05-28T14:05:47;100292.00;;;28.88;30.50
69214;BME280;56325;47.030;18.518;2023-05-28T14:08:23;100292.91;;;28.29;33.07
69214;BME280;56325;47.030;18.518;2023-05-28T14:10:58;100284.16;;;28.52;30.90
69214;BME280;56325;47.030;18.518;2023-05-28T14:13:32;100286.03;;;27.81;32.50
69214;BME280;56325;47.030;18.518;2023-05-28T14:16:07;100285.63;;;28.01;33.77
69214;BME280;56325;47.030;18.518;2023-05-28T14:18:43;100283.75;;;28.38;32.20
69214;BME280;56325;47.030;18.518;2023-05-28T14:21:18;100279.66;;;28.15;31.74
69214;BME280;56325;47.030;18.518;2023-05-28T14:23:52;100277.25;;;28.11;33.01
69214;BME280;56325;47.030;18.518;2023-05-28T14:26:27;100285.81;;;27.36;34.29
69214;BME280;56325;47.030;18.518;2023-05-28T14:29:02;100279.62;;;27.05;34.43
69214;BME280;56325;47.030;18.518;2023-05-28T14:31:36;100278.59;;;27.43;33.60
69214;BME280;56325;47.030;18.518;2023-05-28T14:34:12;100275.31;;;27.96;33.54
69214;BME280;56325;47.030;18.518;2023-05-28T14:36:47;100275.88;;;28.37;33.19
69214;BME280;56325;47.030;18.518;2023-05-28T14:39:22;100271.88;;;28.84;32.30
69214;BME280;56325;47.030;18.518;2023-05-28T14:41:57;100260.78;;;28.79;31.54
69214;BME280;56325;47.030;18.518;2023-05-28T14:44:31;100258.22;;;28.73;31.41
69214;BME280;56325;47.030;18.518;2023-05-28T14:47:06;100263.72;;;28.44;31.19
69214;BME280;56325;47.030;18.518;2023-05-28T14:49:42;100254.16;;;28.84;32.26
69214;BME280;56325;47.030;18.518;2023-05-28T14:52:21;100257.03;;;28.93;32.20
69214;BME280;56325;47.030;18.518;2023-05-28T14:54:56;100254.22;;;28.76;32.18
69214;BME280;56325;47.030;18.518;2023-05-28T14:57:31;100249.22;;;28.05;32.08
69214;BME280;56325;47.030;18.518;2023-05-28T15:00:08;100253.69;;;27.74;32.66
69214;BME280;56325;47.030;18.518;2023-05-28T15:02:43;100241.56;;;27.98;32.76
69214;BME280;56325;47.030;18.518;2023-05-28T15:05:19;100243.41;;;28.55;32.97
69214;BME280;56325;47.030;18.518;2023-05-28T15:07:54;100242.16;;;28.76;32.87
69214;BME280;56325;47.030;18.518;2023-05-28T15:10:28;100234.31;;;28.57;33.63
69214;BME280;56325;47.030;18.518;2023-05-28T15:13:03;100244.66;;;28.71;32.68
69214;BME280;56325;47.030;18.518;2023-05-28T15:15:39;100234.03;;;28.62;32.69
69214;BME280;56325;47.030;18.518;2023-05-28T15:18:13;100243.94;;;28.27;31.02
69214;BME280;56325;47.030;18.518;2023-05-28T15:20:49;100232.94;;;28.31;31.45
69214;BME280;56325;47.030;18.518;2023-05-28T15:23:25;100236.09;;;28.35;32.09
69214;BME280;56325;47.030;18.518;2023-05-28T15:25:59;100228.19;;;28.51;32.30
69214;BME280;56325;47.030;18.518;2023-05-28T15:28:34;100232.53;;;28.61;32.36
69214;BME280;56325;47.030;18.518;2023-05-28T15:31:09;100222.50;;;28.78;33.20
69214;BME280;56325;47.030;18.518;2023-05-28T15:33:44;100220.13;;;29.01;31.86
69214;BME280;56325;47.030;18.518;2023-05-28T15:36:21;100209.47;;;28.65;31.53
69214;BME280;56325;47.030;18.518;2023-05-28T15:38:57;100220.19;;;28.84;31.86
69214;BME280;56325;47.030;18.518;2023-05-28T15:41:32;100217.34;;;28.84;32.11
69214;BME280;56325;47.030;18.518;2023-05-28T15:44:07;100222.94;;;28.13;32.64
69214;BME280;56325;47.030;18.518;2023-05-28T15:46:42;100216.72;;;27.97;32.57
69214;BME280;56325;47.030;18.518;2023-05-28T15:49:17;100216.72;;;28.31;32.93
69214;BME280;56325;47.030;18.518;2023-05-28T15:51:53;100218.62;;;28.46;32.77
69214;BME280;56325;47.030;18.518;2023-05-28T15:54:28;100216.97;;;28.43;32.90
69214;BME280;56325;47.030;18.518;2023-05-28T15:57:02;100219.63;;;27.89;34.43
69214;BME280;56325;47.030;18.518;2023-05-28T15:59:38;100221.72;;;28.06;34.40
69214;BME280;56325;47.030;18.518;2023-05-28T16:02:18;100217.91;;;28.28;33.05
69214;BME280;56325;47.030;18.518;2023-05-28T16:04:53;100215.88;;;28.38;33.28
69214;BME280;56325;47.030;18.518;2023-05-28T16:07:29;100213.00;;;28.29;34.28
69214;BME280;56325;47.030;18.518;2023-05-28T16:10:04;100222.63;;;27.91;34.18
69214;BME280;56325;47.030;18.518;2023-05-28T16:12:39;100225.28;;;28.06;34.79
69214;BME280;56325;47.030;18.518;2023-05-28T16:15:14;100220.63;;;28.19;33.49
69214;BME280;56325;47.030;18.518;2023-05-28T16:17:49;100227.84;;;28.12;34.21
69214;BME280;56325;47.030;18.518;2023-05-28T16:20:25;100228.53;;;28.20;34.19
69214;BME280;56325;47.030;18.518;2023-05-28T16:23:02;100234.41;;;27.80;33.30
69214;BME280;56325;47.030;18.518;2023-05-28T16:25:37;100231.03;;;27.57;33.63
69214;BME280;56325;47.030;18.518;2023-05-28T16:28:12;100234.75;;;27.67;34.54
69214;BME280;56325;47.030;18.518;2023-05-28T16:30:48;100228.75;;;27.63;34.50
69214;BME280;56325;47.030;18.518;2023-05-28T16:33:23;100224.16;;;27.25;34.28
69214;BME280;56325;47.030;18.518;2023-05-28T16:35:58;100228.53;;;27.19;34.73
69214;BME280;56325;47.030;18.518;2023-05-28T16:38:34;100237.97;;;27.38;34.86
69214;BME280;56325;47.030;18.518;2023-05-28T16:41:09;100232.97;;;27.29;33.73
69214;BME280;56325;47.030;18.518;2023-05-28T16:43:45;100231.81;;;27.32;35.83
69214;BME280;56325;47.030;18.518;2023-05-28T16:46:20;100229.34;;;27.36;35.52
69214;BME280;56325;47.030;18.518;2023-05-28T16:48:55;100228.47;;;27.51;34.96
69214;BME280;56325;47.030;18.518;2023-05-28T16:51:31;100228.19;;;27.64;34.29
69214;BME280;56325;47.030;18.518;2023-05-28T16:54:07;100229.63;;;27.48;34.66
69214;BME280;56325;47.030;18.518;2023-05-28T16:56:41;100231.22;;;27.09;34.97
69214;BME280;56325;47.030;18.518;2023-05-28T16:59:17;100230.37;;;27.24;34.35
69214;BME280;56325;47.030;18.518;2023-05-28T17:01:52;100224.72;;;26.91;35.86
69214;BME280;56325;47.030;18.518;2023-05-28T17:04:26;100227.00;;;26.60;35.28
69214;BME280;56325;47.030;18.518;2023-05-28T17:07:01;100225.16;;;26.55;36.01
69214;BME280;56325;47.030;18.518;2023-05-28T17:09:37;100237.09;;;26.71;36.02
69214;BME280;56325;47.030;18.518;2023-05-28T17:12:12;100230.66;;;26.45;35.56
69214;BME280;56325;47.030;18.518;2023-05-28T17:14:47;100233.50;;;26.30;36.82
69214;BME280;56325;47.030;18.518;2023-05-28T17:17:22;100232.50;;;25.95;37.66
69214;BME280;56325;47.030;18.518;2023-05-28T17:19:57;100234.78;;;25.74;37.86
69214;BME280;56325;47.030;18.518;2023-05-28T17:22:31;100233.47;;;25.67;38.73
69214;BME280;56325;47.030;18.518;2023-05-28T17:25:08;100246.97;;;25.38;39.63